sensor_id;sensor_type;location;lat;lon;timestamp;temperature;humidity
23079;DHT22;11707;50.830;4.364;2024-02-23T00:01:01;7.00;63.70
23079;DHT22;11707;50.830;4.364;2024-02-23T00:03:26;7.10;59.70
23079;DHT22;11707;50.830;4.364;2024-02-23T00:05:52;7.10;61.60
23079;DHT22;11707;50.830;4.364;2024-02-23T00:08:17;7.00;57.20
23079;DHT22;11707;50.830;4.364;2024-02-23T00:10:44;7.00;47.50
23079;DHT22;11707;50.830;4.364;2024-02-23T00:13:12;7.00;45.50
23079;DHT22;11707;50.830;4.364;2024-02-23T00:15:38;6.90;41.40
23079;DHT22;11707;50.830;4.364;2024-02-23T00:18:04;6.90;41.60
23079;DHT22;11707;50.830;4.364;2024-02-23T00:20:30;6.80;30.20
23079;DHT22;11707;50.830;4.364;2024-02-23T00:22:58;6.70;34.90
23079;DHT22;11707;50.830;4.364;2024-02-23T00:25:23;6.60;33.30
23079;DHT22;11707;50.830;4.364;2024-02-23T00:27:49;6.60;34.60
23079;DHT22;11707;50.830;4.364;2024-02-23T00:30:15;6.60;38.90
23079;DHT22;11707;50.830;4.364;2024-02-23T00:32:41;6.60;35.80
23079;DHT22;11707;50.830;4.364;2024-02-23T00:35:07;6.50;46.10
23079;DHT22;11707;50.830;4.364;2024-02-23T00:37:32;6.50;53.10
23079;DHT22;11707;50.830;4.364;2024-02-23T00:40:02;6.60;52.90
23079;DHT22;11707;50.830;4.364;2024-02-23T00:42:30;6.70;55.60
23079;DHT22;11707;50.830;4.364;2024-02-23T00:44:55;6.70;58.20
23079;DHT22;11707;50.830;4.364;2024-02-23T00:47:21;6.60;66.70
23079;DHT22;11707;50.830;4.364;2024-02-23T00:49:47;6.50;75.10
23079;DHT22;11707;50.830;4.364;2024-02-23T00:52:15;6.50;75.90
23079;DHT22;11707;50.830;4.364;2024-02-23T00:54:41;6.40;80.10
23079;DHT22;11707;50.830;4.364;2024-02-23T00:57:07;6.20;89.30
23079;DHT22;11707;50.830;4.364;2024-02-23T00:59:33;6.20;92.80
23079;DHT22;11707;50.830;4.364;2024-02-23T01:01:59;6.20;91.70
23079;DHT22;11707;50.830;4.364;2024-02-23T01:04:24;6.20;90.90
23079;DHT22;11707;50.830;4.364;2024-02-23T01:06:51;6.30;92.40
23079;DHT22;11707;50.830;4.364;2024-02-23T01:09:19;6.30;88.00
23079;DHT22;11707;50.830;4.364;2024-02-23T01:11:48;6.30;91.10
23079;DHT22;11707;50.830;4.364;2024-02-23T01:14:17;6.30;90.00
23079;DHT22;11707;50.830;4.364;2024-02-23T01:16:42;6.40;85.80
23079;DHT22;11707;50.830;4.364;2024-02-23T01:19:10;6.30;83.70
23079;DHT22;11707;50.830;4.364;2024-02-23T01:21:36;6.30;84.70
23079;DHT22;11707;50.830;4.364;2024-02-23T01:24:01;6.30;86.40
23079;DHT22;11707;50.830;4.364;2024-02-23T01:26:27;6.30;90.70
23079;DHT22;11707;50.830;4.364;2024-02-23T01:28:55;6.40;84.00
23079;DHT22;11707;50.830;4.364;2024-02-23T01:31:22;6.40;80.70
23079;DHT22;11707;50.830;4.364;2024-02-23T01:33:47;6.40;73.50
23079;DHT22;11707;50.830;4.364;2024-02-23T01:36:15;6.40;72.10
23079;DHT22;11707;50.830;4.364;2024-02-23T01:38:42;6.40;71.10
23079;DHT22;11707;50.830;4.364;2024-02-23T01:41:10;6.40;74.20
23079;DHT22;11707;50.830;4.364;2024-02-23T01:43:37;6.30;71.80
23079;DHT22;11707;50.830;4.364;2024-02-23T01:46:03;6.40;79.70
23079;DHT22;11707;50.830;4.364;2024-02-23T01:48:31;6.30;74.00
23079;DHT22;11707;50.830;4.364;2024-02-23T01:50:57;6.30;76.80
23079;DHT22;11707;50.830;4.364;2024-02-23T01:53:24;6.30;81.30
23079;DHT22;11707;50.830;4.364;2024-02-23T01:55:53;6.40;80.30
23079;DHT22;11707;50.830;4.364;2024-02-23T01:58:21;6.50;70.30
23079;DHT22;11707;50.830;4.364;2024-02-23T02:00:47;6.60;70.60
23079;DHT22;11707;50.830;4.364;2024-02-23T02:03:14;6.50;67.00
23079;DHT22;11707;50.830;4.364;2024-02-23T02:05:40;6.50;67.00
23079;DHT22;11707;50.830;4.364;2024-02-23T02:08:06;6.50;70.90
23079;DHT22;11707;50.830;4.364;2024-02-23T02:10:32;6.50;71.40
23079;DHT22;11707;50.830;4.364;2024-02-23T02:13:05;6.60;74.00
23079;DHT22;11707;50.830;4.364;2024-02-23T02:15:33;6.70;71.60
23079;DHT22;11707;50.830;4.364;2024-02-23T02:17:59;6.80;65.60
23079;DHT22;11707;50.830;4.364;2024-02-23T02:20:25;6.90;61.80
23079;DHT22;11707;50.830;4.364;2024-02-23T02:22:56;6.80;59.30
23079;DHT22;11707;50.830;4.364;2024-02-23T02:25:21;6.80;59.70
23079;DHT22;11707;50.830;4.364;2024-02-23T02:27:47;6.90;54.10
23079;DHT22;11707;50.830;4.364;2024-02-23T02:30:13;6.70;55.40
23079;DHT22;11707;50.830;4.364;2024-02-23T02:32:39;6.60;62.40
23079;DHT22;11707;50.830;4.364;2024-02-23T02:35:07;6.60;66.00
23079;DHT22;11707;50.830;4.364;2024-02-23T02:37:33;6.80;65.80
23079;DHT22;11707;50.830;4.364;2024-02-23T02:39:58;6.80;61.60
23079;DHT22;11707;50.830;4.364;2024-02-23T02:42:24;6.70;64.20
23079;DHT22;11707;50.830;4.364;2024-02-23T02:44:50;6.60;61.90
23079;DHT22;11707;50.830;4.364;2024-02-23T02:47:15;6.60;68.40
23079;DHT22;11707;50.830;4.364;2024-02-23T02:49:44;6.70;64.80
23079;DHT22;11707;50.830;4.364;2024-02-23T02:52:09;6.70;60.50
23079;DHT22;11707;50.830;4.364;2024-02-23T02:54:35;6.70;58.60
23079;DHT22;11707;50.830;4.364;2024-02-23T02:57:01;6.70;55.30
23079;DHT22;11707;50.830;4.364;2024-02-23T02:59:26;6.80;56.30
23079;DHT22;11707;50.830;4.364;2024-02-23T03:01:52;6.80;52.20
23079;DHT22;11707;50.830;4.364;2024-02-23T03:04:18;6.80;53.80
23079;DHT22;11707;50.830;4.364;2024-02-23T03:06:43;6.80;53.60
23079;DHT22;11707;50.830;4.364;2024-02-23T03:09:09;6.80;47.80
23079;DHT22;11707;50.830;4.364;2024-02-23T03:11:37;6.70;50.10
23079;DHT22;11707;50.830;4.364;2024-02-23T03:14:03;6.80;52.80
23079;DHT22;11707;50.830;4.364;2024-02-23T03:16:29;6.80;50.20
23079;DHT22;11707;50.830;4.364;2024-02-23T03:18:58;6.90;51.10
23079;DHT22;11707;50.830;4.364;2024-02-23T03:21:24;6.80;49.70
23079;DHT22;11707;50.830;4.364;2024-02-23T03:23:50;6.80;54.70
23079;DHT22;11707;50.830;4.364;2024-02-23T03:26:17;6.90;52.30
23079;DHT22;11707;50.830;4.364;2024-02-23T03:28:43;7.00;52.20
23079;DHT22;11707;50.830;4.364;2024-02-23T03:31:11;6.90;44.60
23079;DHT22;11707;50.830;4.364;2024-02-23T03:33:39;6.90;49.90
23079;DHT22;11707;50.830;4.364;2024-02-23T03:36:05;6.80;44.20
23079;DHT22;11707;50.830;4.364;2024-02-23T03:38:31;6.90;42.60
23079;DHT22;11707;50.830;4.364;2024-02-23T03:40:57;7.00;40.10
23079;DHT22;11707;50.830;4.364;2024-02-23T03:43:24;7.00;39.70
23079;DHT22;11707;50.830;4.364;2024-02-23T03:45:50;7.00;38.50
23079;DHT22;11707;50.830;4.364;2024-02-23T03:48:18;6.90;39.50
23079;DHT22;11707;50.830;4.364;2024-02-23T03:50:44;6.90;42.30
23079;DHT22;11707;50.830;4.364;2024-02-23T03:53:12;6.90;39.90
23079;DHT22;11707;50.830;4.364;2024-02-23T03:55:37;7.00;37.80
23079;DHT22;11707;50.830;4.364;2024-02-23T03:58:03;6.90;36.70
23079;DHT22;11707;50.830;4.364;2024-02-23T04:00:32;6.80;39.10
23079;DHT22;11707;50.830;4.364;2024-02-23T04:02:57;6.80;47.50
23079;DHT22;11707;50.830;4.364;2024-02-23T04:05:23;6.80;47.10
23079;DHT22;11707;50.830;4.364;2024-02-23T04:07:49;6.70;46.70
23079;DHT22;11707;50.830;4.364;2024-02-23T04:10:17;6.70;51.10
23079;DHT22;11707;50.830;4.364;2024-02-23T04:12:47;6.90;50.50
23079;DHT22;11707;50.830;4.364;2024-02-23T04:15:12;6.90;42.20
23079;DHT22;11707;50.830;4.364;2024-02-23T04:17:39;6.90;44.20
23079;DHT22;11707;50.830;4.364;2024-02-23T04:20:08;6.90;48.60
23079;DHT22;11707;50.830;4.364;2024-02-23T04:22:37;7.00;42.10
23079;DHT22;11707;50.830;4.364;2024-02-23T04:25:04;6.90;39.10
23079;DHT22;11707;50.830;4.364;2024-02-23T04:27:30;6.90;32.90
23079;DHT22;11707;50.830;4.364;2024-02-23T04:29:56;7.00;5.10
23079;DHT22;11707;50.830;4.364;2024-02-23T04:32:26;7.00;1.00
23079;DHT22;11707;50.830;4.364;2024-02-23T04:34:52;7.10;1.00
23079;DHT22;11707;50.830;4.364;2024-02-23T04:37:17;7.10;1.00
23079;DHT22;11707;50.830;4.364;2024-02-23T04:39:46;7.00;1.00
23079;DHT22;11707;50.830;4.364;2024-02-23T04:42:13;6.90;1.00
23079;DHT22;11707;50.830;4.364;2024-02-23T04:44:41;6.90;1.00
23079;DHT22;11707;50.830;4.364;2024-02-23T04:47:09;6.90;1.00
23079;DHT22;11707;50.830;4.364;2024-02-23T04:49:35;6.90;1.00
23079;DHT22;11707;50.830;4.364;2024-02-23T04:52:01;6.90;1.00
23079;DHT22;11707;50.830;4.364;2024-02-23T04:54:26;6.80;1.00
23079;DHT22;11707;50.830;4.364;2024-02-23T04:56:56;6.90;1.00
23079;DHT22;11707;50.830;4.364;2024-02-23T04:59:22;6.70;1.00
23079;DHT22;11707;50.830;4.364;2024-02-23T05:01:48;6.70;1.00
23079;DHT22;11707;50.830;4.364;2024-02-23T05:04:16;6.80;1.00
23079;DHT22;11707;50.830;4.364;2024-02-23T05:06:44;7.00;1.00
23079;DHT22;11707;50.830;4.364;2024-02-23T05:09:15;6.90;1.00
23079;DHT22;11707;50.830;4.364;2024-02-23T05:11:43;6.80;1.00
23079;DHT22;11707;50.830;4.364;2024-02-23T05:14:09;6.80;1.00
23079;DHT22;11707;50.830;4.364;2024-02-23T05:16:34;6.80;1.00
23079;DHT22;11707;50.830;4.364;2024-02-23T05:19:00;6.70;1.00
23079;DHT22;11707;50.830;4.364;2024-02-23T05:21:28;6.60;1.00
23079;DHT22;11707;50.830;4.364;2024-02-23T05:23:53;6.80;1.00
23079;DHT22;11707;50.830;4.364;2024-02-23T05:26:19;6.80;1.00
23079;DHT22;11707;50.830;4.364;2024-02-23T05:28:45;6.80;1.00
23079;DHT22;11707;50.830;4.364;2024-02-23T05:31:11;6.70;1.00
23079;DHT22;11707;50.830;4.364;2024-02-23T05:33:41;6.60;1.00
23079;DHT22;11707;50.830;4.364;2024-02-23T05:36:07;6.60;1.00
23079;DHT22;11707;50.830;4.364;2024-02-23T05:38:33;6.60;1.00
23079;DHT22;11707;50.830;4.364;2024-02-23T05:40:59;6.60;1.00
23079;DHT22;11707;50.830;4.364;2024-02-23T05:43:27;6.70;1.00
23079;DHT22;11707;50.830;4.364;2024-02-23T05:45:55;6.60;1.00
23079;DHT22;11707;50.830;4.364;2024-02-23T05:48:24;6.50;1.00
23079;DHT22;11707;50.830;4.364;2024-02-23T05:50:52;6.50;1.00
23079;DHT22;11707;50.830;4.364;2024-02-23T05:53:18;6.60;1.00
23079;DHT22;11707;50.830;4.364;2024-02-23T05:55:43;6.50;1.00
23079;DHT22;11707;50.830;4.364;2024-02-23T05:58:09;6.50;1.00
23079;DHT22;11707;50.830;4.364;2024-02-23T06:00:35;6.50;1.00
23079;DHT22;11707;50.830;4.364;2024-02-23T06:03:00;6.50;1.00
23079;DHT22;11707;50.830;4.364;2024-02-23T06:05:26;6.50;1.00
23079;DHT22;11707;50.830;4.364;2024-02-23T06:07:52;6.50;1.00
23079;DHT22;11707;50.830;4.364;2024-02-23T06:10:17;6.50;1.00
23079;DHT22;11707;50.830;4.364;2024-02-23T06:12:43;6.50;1.00
23079;DHT22;11707;50.830;4.364;2024-02-23T06:15:09;6.40;1.00
23079;DHT22;11707;50.830;4.364;2024-02-23T06:17:35;6.40;1.00
23079;DHT22;11707;50.830;4.364;2024-02-23T06:20:00;6.50;1.00
23079;DHT22;11707;50.830;4.364;2024-02-23T06:22:26;6.50;1.00
23079;DHT22;11707;50.830;4.364;2024-02-23T06:24:52;6.50;1.00
23079;DHT22;11707;50.830;4.364;2024-02-23T06:27:20;6.60;1.00
23079;DHT22;11707;50.830;4.364;2024-02-23T06:29:47;6.50;1.00
23079;DHT22;11707;50.830;4.364;2024-02-23T06:32:13;6.60;1.00
23079;DHT22;11707;50.830;4.364;2024-02-23T06:34:41;6.60;1.00
23079;DHT22;11707;50.830;4.364;2024-02-23T06:37:06;6.60;1.00
23079;DHT22;11707;50.830;4.364;2024-02-23T06:39:32;6.50;1.00
23079;DHT22;11707;50.830;4.364;2024-02-23T06:41:58;6.60;1.00
23079;DHT22;11707;50.830;4.364;2024-02-23T06:44:26;6.70;1.00
23079;DHT22;11707;50.830;4.364;2024-02-23T06:46:51;6.80;1.00
23079;DHT22;11707;50.830;4.364;2024-02-23T06:49:17;6.70;1.00
23079;DHT22;11707;50.830;4.364;2024-02-23T06:51:42;6.70;1.00
23079;DHT22;11707;50.830;4.364;2024-02-23T06:54:08;6.70;1.00
23079;DHT22;11707;50.830;4.364;2024-02-23T06:56:34;6.80;1.00
23079;DHT22;11707;50.830;4.364;2024-02-23T06:59:02;6.90;1.00
23079;DHT22;11707;50.830;4.364;2024-02-23T07:01:28;7.00;1.00
23079;DHT22;11707;50.830;4.364;2024-02-23T07:03:56;7.00;1.00
23079;DHT22;11707;50.830;4.364;2024-02-23T07:06:24;7.00;1.00
23079;DHT22;11707;50.830;4.364;2024-02-23T07:08:54;6.90;1.00
23079;DHT22;11707;50.830;4.364;2024-02-23T07:11:20;6.80;1.00
23079;DHT22;11707;50.830;4.364;2024-02-23T07:13:45;7.00;1.00
23079;DHT22;11707;50.830;4.364;2024-02-23T07:16:11;7.00;1.00
23079;DHT22;11707;50.830;4.364;2024-02-23T07:18:37;7.00;1.00
23079;DHT22;11707;50.830;4.364;2024-02-23T07:21:06;7.00;1.00
23079;DHT22;11707;50.830;4.364;2024-02-23T07:23:31;6.90;1.00
23079;DHT22;11707;50.830;4.364;2024-02-23T07:25:57;6.90;1.00
23079;DHT22;11707;50.830;4.364;2024-02-23T07:28:23;6.90;1.00
23079;DHT22;11707;50.830;4.364;2024-02-23T07:30:50;6.90;1.00
23079;DHT22;11707;50.830;4.364;2024-02-23T07:33:18;7.00;1.00
23079;DHT22;11707;50.830;4.364;2024-02-23T07:35:46;7.10;1.00
23079;DHT22;11707;50.830;4.364;2024-02-23T07:38:12;7.10;1.00
23079;DHT22;11707;50.830;4.364;2024-02-23T07:40:40;7.20;1.00
23079;DHT22;11707;50.830;4.364;2024-02-23T07:43:05;7.20;1.00
23079;DHT22;11707;50.830;4.364;2024-02-23T07:45:31;7.20;1.00
23079;DHT22;11707;50.830;4.364;2024-02-23T07:47:59;7.20;1.00
23079;DHT22;11707;50.830;4.364;2024-02-23T07:50:24;7.30;1.00
23079;DHT22;11707;50.830;4.364;2024-02-23T07:52:50;7.30;1.00
23079;DHT22;11707;50.830;4.364;2024-02-23T07:55:15;7.40;1.00
23079;DHT22;11707;50.830;4.364;2024-02-23T07:57:41;7.50;1.00
23079;DHT22;11707;50.830;4.364;2024-02-23T08:00:10;7.50;1.00
23079;DHT22;11707;50.830;4.364;2024-02-23T08:02:36;7.60;1.00
23079;DHT22;11707;50.830;4.364;2024-02-23T08:05:05;7.60;1.00
23079;DHT22;11707;50.830;4.364;2024-02-23T08:07:30;7.40;1.00
23079;DHT22;11707;50.830;4.364;2024-02-23T08:09:56;7.30;1.00
23079;DHT22;11707;50.830;4.364;2024-02-23T08:12:22;7.30;1.00
23079;DHT22;11707;50.830;4.364;2024-02-23T08:14:48;7.30;1.00
23079;DHT22;11707;50.830;4.364;2024-02-23T08:17:18;7.20;11.40
23079;DHT22;11707;50.830;4.364;2024-02-23T08:19:47;7.20;25.80
23079;DHT22;11707;50.830;4.364;2024-02-23T08:22:12;7.10;30.50
23079;DHT22;11707;50.830;4.364;2024-02-23T08:24:40;7.00;46.30
23079;DHT22;11707;50.830;4.364;2024-02-23T08:27:06;7.00;48.40
23079;DHT22;11707;50.830;4.364;2024-02-23T08:29:32;7.10;57.10
23079;DHT22;11707;50.830;4.364;2024-02-23T08:32:00;7.00;54.70
23079;DHT22;11707;50.830;4.364;2024-02-23T08:34:26;6.90;59.60
23079;DHT22;11707;50.830;4.364;2024-02-23T08:36:51;6.90;75.80
23079;DHT22;11707;50.830;4.364;2024-02-23T08:39:17;6.80;79.90
23079;DHT22;11707;50.830;4.364;2024-02-23T08:41:47;6.70;81.90
23079;DHT22;11707;50.830;4.364;2024-02-23T08:44:13;6.70;87.80
23079;DHT22;11707;50.830;4.364;2024-02-23T08:46:43;6.70;88.00
23079;DHT22;11707;50.830;4.364;2024-02-23T08:49:09;6.70;84.00
23079;DHT22;11707;50.830;4.364;2024-02-23T08:51:37;6.60;92.60
23079;DHT22;11707;50.830;4.364;2024-02-23T08:54:03;6.50;97.70
23079;DHT22;11707;50.830;4.364;2024-02-23T08:56:37;6.40;99.90
23079;DHT22;11707;50.830;4.364;2024-02-23T08:59:07;6.50;99.90
23079;DHT22;11707;50.830;4.364;2024-02-23T09:01:33;6.40;99.90
23079;DHT22;11707;50.830;4.364;2024-02-23T09:04:01;6.60;99.90
23079;DHT22;11707;50.830;4.364;2024-02-23T09:06:27;6.60;99.90
23079;DHT22;11707;50.830;4.364;2024-02-23T09:08:52;6.50;99.90
23079;DHT22;11707;50.830;4.364;2024-02-23T09:11:18;6.40;99.90
23079;DHT22;11707;50.830;4.364;2024-02-23T09:13:44;6.40;99.90
23079;DHT22;11707;50.830;4.364;2024-02-23T09:16:09;6.40;99.90
23079;DHT22;11707;50.830;4.364;2024-02-23T09:18:35;6.50;99.90
23079;DHT22;11707;50.830;4.364;2024-02-23T09:21:03;6.50;99.90
23079;DHT22;11707;50.830;4.364;2024-02-23T09:23:29;6.50;99.90
23079;DHT22;11707;50.830;4.364;2024-02-23T09:25:59;6.60;99.90
23079;DHT22;11707;50.830;4.364;2024-02-23T09:28:25;6.80;98.70
23079;DHT22;11707;50.830;4.364;2024-02-23T09:30:53;6.80;95.60
23079;DHT22;11707;50.830;4.364;2024-02-23T09:33:20;6.80;94.30
23079;DHT22;11707;50.830;4.364;2024-02-23T09:35:46;6.90;96.70
23079;DHT22;11707;50.830;4.364;2024-02-23T09:38:14;6.90;95.50
23079;DHT22;11707;50.830;4.364;2024-02-23T09:40:40;7.00;92.10
23079;DHT22;11707;50.830;4.364;2024-02-23T09:43:08;7.10;90.70
23079;DHT22;11707;50.830;4.364;2024-02-23T09:45:34;7.20;84.60
23079;DHT22;11707;50.830;4.364;2024-02-23T09:48:01;7.30;80.20
23079;DHT22;11707;50.830;4.364;2024-02-23T09:50:29;7.30;60.90
23079;DHT22;11707;50.830;4.364;2024-02-23T09:52:59;7.30;59.90
23079;DHT22;11707;50.830;4.364;2024-02-23T09:55:25;7.20;61.70
23079;DHT22;11707;50.830;4.364;2024-02-23T09:57:57;7.40;70.70
23079;DHT22;11707;50.830;4.364;2024-02-23T10:00:24;7.40;48.10
23079;DHT22;11707;50.830;4.364;2024-02-23T10:02:50;7.30;38.70
23079;DHT22;11707;50.830;4.364;2024-02-23T10:05:16;7.30;33.90
23079;DHT22;11707;50.830;4.364;2024-02-23T10:07:42;7.30;30.60
23079;DHT22;11707;50.830;4.364;2024-02-23T10:10:12;7.40;26.90
23079;DHT22;11707;50.830;4.364;2024-02-23T10:12:37;7.50;29.90
23079;DHT22;11707;50.830;4.364;2024-02-23T10:15:03;7.50;23.40
23079;DHT22;11707;50.830;4.364;2024-02-23T10:17:32;7.60;23.20
23079;DHT22;11707;50.830;4.364;2024-02-23T10:20:00;7.60;18.10
23079;DHT22;11707;50.830;4.364;2024-02-23T10:22:30;7.70;18.00
23079;DHT22;11707;50.830;4.364;2024-02-23T10:24:59;7.80;21.30
23079;DHT22;11707;50.830;4.364;2024-02-23T10:27:24;8.00;2.00
23079;DHT22;11707;50.830;4.364;2024-02-23T10:29:51;8.30;1.00
23079;DHT22;11707;50.830;4.364;2024-02-23T10:32:18;8.30;1.00
23079;DHT22;11707;50.830;4.364;2024-02-23T10:34:48;8.20;1.00
23079;DHT22;11707;50.830;4.364;2024-02-23T10:37:15;8.10;1.00
23079;DHT22;11707;50.830;4.364;2024-02-23T10:39:42;8.10;1.00
23079;DHT22;11707;50.830;4.364;2024-02-23T10:42:09;8.10;1.00
23079;DHT22;11707;50.830;4.364;2024-02-23T10:44:37;8.10;1.00
23079;DHT22;11707;50.830;4.364;2024-02-23T10:47:04;8.20;1.00
23079;DHT22;11707;50.830;4.364;2024-02-23T10:49:31;8.20;1.00
23079;DHT22;11707;50.830;4.364;2024-02-23T10:51:56;8.20;1.00
23079;DHT22;11707;50.830;4.364;2024-02-23T10:54:22;8.20;1.00
23079;DHT22;11707;50.830;4.364;2024-02-23T10:56:52;8.20;1.00
23079;DHT22;11707;50.830;4.364;2024-02-23T10:59:19;8.30;1.00
23079;DHT22;11707;50.830;4.364;2024-02-23T11:01:49;8.20;1.00
23079;DHT22;11707;50.830;4.364;2024-02-23T11:04:19;8.20;1.00
23079;DHT22;11707;50.830;4.364;2024-02-23T11:06:52;8.40;1.00
23079;DHT22;11707;50.830;4.364;2024-02-23T11:09:21;8.60;1.00
23079;DHT22;11707;50.830;4.364;2024-02-23T11:11:57;8.60;99.90
23079;DHT22;11707;50.830;4.364;2024-02-23T11:14:35;8.60;99.90
23079;DHT22;11707;50.830;4.364;2024-02-23T11:17:02;8.60;1.00
23079;DHT22;11707;50.830;4.364;2024-02-23T11:19:39;8.40;1.00
23079;DHT22;11707;50.830;4.364;2024-02-23T11:22:09;8.50;1.00
23079;DHT22;11707;50.830;4.364;2024-02-23T11:24:34;8.60;99.90
23079;DHT22;11707;50.830;4.364;2024-02-23T11:27:01;8.60;1.00
23079;DHT22;11707;50.830;4.364;2024-02-23T11:29:33;8.50;1.00
23079;DHT22;11707;50.830;4.364;2024-02-23T11:32:00;8.60;99.90
23079;DHT22;11707;50.830;4.364;2024-02-23T11:34:27;8.60;99.90
23079;DHT22;11707;50.830;4.364;2024-02-23T11:36:53;8.70;99.90
23079;DHT22;11707;50.830;4.364;2024-02-23T11:39:22;8.70;99.90
23079;DHT22;11707;50.830;4.364;2024-02-23T11:41:53;8.80;99.90
23079;DHT22;11707;50.830;4.364;2024-02-23T11:44:19;9.00;99.90
23079;DHT22;11707;50.830;4.364;2024-02-23T11:46:46;9.00;99.90
23079;DHT22;11707;50.830;4.364;2024-02-23T11:49:15;8.90;99.90
23079;DHT22;11707;50.830;4.364;2024-02-23T11:51:46;8.80;99.90
23079;DHT22;11707;50.830;4.364;2024-02-23T11:54:14;8.90;99.90
23079;DHT22;11707;50.830;4.364;2024-02-23T11:56:40;8.70;99.90
23079;DHT22;11707;50.830;4.364;2024-02-23T11:59:10;8.50;99.90
23079;DHT22;11707;50.830;4.364;2024-02-23T12:01:38;8.50;99.90
23079;DHT22;11707;50.830;4.364;2024-02-23T12:04:05;8.80;99.90
23079;DHT22;11707;50.830;4.364;2024-02-23T12:06:31;9.10;99.90
23079;DHT22;11707;50.830;4.364;2024-02-23T12:08:58;9.00;99.90
23079;DHT22;11707;50.830;4.364;2024-02-23T12:11:24;9.20;99.90
23079;DHT22;11707;50.830;4.364;2024-02-23T12:13:52;9.30;99.90
23079;DHT22;11707;50.830;4.364;2024-02-23T12:16:20;9.30;99.90
23079;DHT22;11707;50.830;4.364;2024-02-23T12:18:53;9.50;99.90
23079;DHT22;11707;50.830;4.364;2024-02-23T12:21:19;9.50;1.00
23079;DHT22;11707;50.830;4.364;2024-02-23T12:23:45;9.60;1.00
23079;DHT22;11707;50.830;4.364;2024-02-23T12:26:14;9.50;1.00
23079;DHT22;11707;50.830;4.364;2024-02-23T12:28:41;9.70;54.00
23079;DHT22;11707;50.830;4.364;2024-02-23T12:31:07;9.50;99.90
23079;DHT22;11707;50.830;4.364;2024-02-23T12:33:37;9.40;99.90
23079;DHT22;11707;50.830;4.364;2024-02-23T12:36:05;9.40;99.90
23079;DHT22;11707;50.830;4.364;2024-02-23T12:38:31;9.40;99.90
23079;DHT22;11707;50.830;4.364;2024-02-23T12:40:57;9.40;99.90
23079;DHT22;11707;50.830;4.364;2024-02-23T12:43:23;9.30;99.90
23079;DHT22;11707;50.830;4.364;2024-02-23T12:45:53;9.30;19.90
23079;DHT22;11707;50.830;4.364;2024-02-23T12:48:20;9.60;1.00
23079;DHT22;11707;50.830;4.364;2024-02-23T12:50:46;9.70;1.00
23079;DHT22;11707;50.830;4.364;2024-02-23T12:53:36;9.70;99.90
23079;DHT22;11707;50.830;4.364;2024-02-23T12:56:10;9.50;99.90
23079;DHT22;11707;50.830;4.364;2024-02-23T12:58:41;9.50;99.90
23079;DHT22;11707;50.830;4.364;2024-02-23T13:01:07;9.70;99.90
23079;DHT22;11707;50.830;4.364;2024-02-23T13:03:34;9.60;99.90
23079;DHT22;11707;50.830;4.364;2024-02-23T13:06:00;9.50;99.90
23079;DHT22;11707;50.830;4.364;2024-02-23T13:08:29;9.60;99.90
23079;DHT22;11707;50.830;4.364;2024-02-23T13:10:56;9.60;97.30
23079;DHT22;11707;50.830;4.364;2024-02-23T13:13:22;9.70;99.90
23079;DHT22;11707;50.830;4.364;2024-02-23T13:15:49;9.60;99.90
23079;DHT22;11707;50.830;4.364;2024-02-23T13:18:15;9.50;99.90
23079;DHT22;11707;50.830;4.364;2024-02-23T13:20:43;9.50;99.90
23079;DHT22;11707;50.830;4.364;2024-02-23T13:23:10;9.60;99.90
23079;DHT22;11707;50.830;4.364;2024-02-23T13:25:40;9.60;53.80
23079;DHT22;11707;50.830;4.364;2024-02-23T13:28:07;9.60;1.00
23079;DHT22;11707;50.830;4.364;2024-02-23T13:30:36;9.70;67.40
23079;DHT22;11707;50.830;4.364;2024-02-23T13:33:03;9.80;1.00
23079;DHT22;11707;50.830;4.364;2024-02-23T13:35:28;9.70;1.00
23079;DHT22;11707;50.830;4.364;2024-02-23T13:37:56;9.60;1.00
23079;DHT22;11707;50.830;4.364;2024-02-23T13:40:25;9.70;1.00
23079;DHT22;11707;50.830;4.364;2024-02-23T13:42:53;9.50;99.90
23079;DHT22;11707;50.830;4.364;2024-02-23T13:45:19;9.60;99.90
23079;DHT22;11707;50.830;4.364;2024-02-23T13:48:01;9.70;99.90
23079;DHT22;11707;50.830;4.364;2024-02-23T13:50:32;9.70;1.00
23079;DHT22;11707;50.830;4.364;2024-02-23T13:52:58;9.70;99.90
23079;DHT22;11707;50.830;4.364;2024-02-23T13:55:24;9.90;1.00
23079;DHT22;11707;50.830;4.364;2024-02-23T13:57:52;10.40;1.00
23079;DHT22;11707;50.830;4.364;2024-02-23T14:00:20;10.90;1.00
23079;DHT22;11707;50.830;4.364;2024-02-23T14:02:47;11.10;99.90
23079;DHT22;11707;50.830;4.364;2024-02-23T14:05:15;11.20;87.30
23079;DHT22;11707;50.830;4.364;2024-02-23T14:07:43;11.60;99.90
23079;DHT22;11707;50.830;4.364;2024-02-23T14:10:09;11.70;1.00
23079;DHT22;11707;50.830;4.364;2024-02-23T14:12:38;11.70;99.90
23079;DHT22;11707;50.830;4.364;2024-02-23T14:15:04;11.50;99.90
23079;DHT22;11707;50.830;4.364;2024-02-23T14:17:30;11.20;1.00
23079;DHT22;11707;50.830;4.364;2024-02-23T14:19:56;11.30;99.90
23079;DHT22;11707;50.830;4.364;2024-02-23T14:22:22;11.20;99.90
23079;DHT22;11707;50.830;4.364;2024-02-23T14:24:48;10.90;99.90
23079;DHT22;11707;50.830;4.364;2024-02-23T14:27:13;10.70;99.90
23079;DHT22;11707;50.830;4.364;2024-02-23T14:29:39;10.70;1.00
23079;DHT22;11707;50.830;4.364;2024-02-23T14:32:05;10.60;1.00
23079;DHT22;11707;50.830;4.364;2024-02-23T14:34:33;10.50;1.00
23079;DHT22;11707;50.830;4.364;2024-02-23T14:36:59;10.30;95.20
23079;DHT22;11707;50.830;4.364;2024-02-23T14:39:27;10.10;99.90
23079;DHT22;11707;50.830;4.364;2024-02-23T14:41:53;10.30;99.90
23079;DHT22;11707;50.830;4.364;2024-02-23T14:44:21;10.20;99.90
23079;DHT22;11707;50.830;4.364;2024-02-23T14:46:47;10.10;99.90
23079;DHT22;11707;50.830;4.364;2024-02-23T14:49:13;10.40;99.90
23079;DHT22;11707;50.830;4.364;2024-02-23T14:51:41;10.20;99.90
23079;DHT22;11707;50.830;4.364;2024-02-23T14:54:08;10.40;99.90
23079;DHT22;11707;50.830;4.364;2024-02-23T14:56:36;10.50;99.90
23079;DHT22;11707;50.830;4.364;2024-02-23T14:59:02;10.50;1.00
23079;DHT22;11707;50.830;4.364;2024-02-23T15:01:28;10.40;1.00
23079;DHT22;11707;50.830;4.364;2024-02-23T15:03:56;10.40;34.90
23079;DHT22;11707;50.830;4.364;2024-02-23T15:06:21;10.40;99.90
23079;DHT22;11707;50.830;4.364;2024-02-23T15:08:49;10.20;99.90
23079;DHT22;11707;50.830;4.364;2024-02-23T15:11:15;10.20;99.90
23079;DHT22;11707;50.830;4.364;2024-02-23T15:13:41;10.20;99.90
23079;DHT22;11707;50.830;4.364;2024-02-23T15:16:07;10.10;1.00
23079;DHT22;11707;50.830;4.364;2024-02-23T15:18:32;10.00;99.90
23079;DHT22;11707;50.830;4.364;2024-02-23T15:20:58;10.00;99.90
23079;DHT22;11707;50.830;4.364;2024-02-23T15:23:24;9.90;1.00
23079;DHT22;11707;50.830;4.364;2024-02-23T15:25:50;10.00;99.90
23079;DHT22;11707;50.830;4.364;2024-02-23T15:28:15;10.00;99.90
23079;DHT22;11707;50.830;4.364;2024-02-23T15:30:49;10.00;99.90
23079;DHT22;11707;50.830;4.364;2024-02-23T15:33:14;10.00;1.00
23079;DHT22;11707;50.830;4.364;2024-02-23T15:35:40;10.20;99.90
23079;DHT22;11707;50.830;4.364;2024-02-23T15:38:06;10.10;99.90
23079;DHT22;11707;50.830;4.364;2024-02-23T15:40:31;9.90;99.90
23079;DHT22;11707;50.830;4.364;2024-02-23T15:42:57;9.80;99.90
23079;DHT22;11707;50.830;4.364;2024-02-23T15:45:23;9.90;1.00
23079;DHT22;11707;50.830;4.364;2024-02-23T15:47:51;9.90;99.90